Time;durP1;ratioP1;P1;durP2;ratioP2;P2;SDS_P1;SDS_P2;PMS_P1;PMS_P2;Temp;Humidity;BMP_temperature;BMP_pressure;BME280_temperature;BME280_humidity;BME280_pressure;Samples;Min_cycle;Max_cycle;Signal;HPM_P1;HPM_P2
2022/06/28 00:01:10;;;;;;;53.40;9.05;;;;;;;;;;5022760;28;20042;-60
2022/06/28 00:03:37;;;;;;;55.15;9.55;;;;;;;;;;5024489;28;20022;-58
2022/06/28 00:06:04;;;;;;;51.83;9.65;;;;;;;;;;5029599;28;20033;-60
2022/06/28 00:08:31;;;;;;;55.28;9.27;;;;;;;;;;5028926;28;20108;-61
2022/06/28 00:10:59;;;;;;;50.30;9.38;;;;;;;;;;5025211;28;20037;-59
2022/06/28 00:13:26;;;;;;;57.63;9.48;;;;;;;;;;5027518;28;20057;-60
2022/06/28 00:16:05;;;;;;;49.47;9.10;;;;;;;;;;5028435;28;20041;-62
2022/06/28 00:18:33;;;;;;;47.25;8.63;;;;;;;;;;5027271;28;20033;-61
2022/06/28 00:21:01;;;;;;;55.42;8.40;;;;;;;;;;5025836;28;20547;-60
2022/06/28 00:23:30;;;;;;;48.60;7.78;;;;;;;;;;5026616;28;20682;-60
2022/06/28 00:25:57;;;;;;;50.25;8.68;;;;;;;;;;5027895;28;20021;-60
2022/06/28 00:28:24;;;;;;;49.90;9.00;;;;;;;;;;5027303;28;20029;-60
2022/06/28 00:30:51;;;;;;;49.97;8.85;;;;;;;;;;5025834;28;20034;-61
2022/06/28 00:33:18;;;;;;;50.78;9.52;;;;;;;;;;5025728;28;20075;-58
2022/06/28 00:35:45;;;;;;;45.75;9.32;;;;;;;;;;5025737;28;20025;-60
2022/06/28 00:38:12;;;;;;;53.85;10.52;;;;;;;;;;5025672;28;20108;-60
2022/06/28 00:40:47;;;;;;;59.60;14.30;;;;;;;;;;5025206;28;20392;-63
2022/06/28 00:43:15;;;;;;;75.75;16.58;;;;;;;;;;5021896;28;20033;-61
2022/06/28 00:45:45;;;;;;;86.30;16.02;;;;;;;;;;5026157;28;20025;-60
2022/06/28 00:48:17;;;;;;;79.20;18.27;;;;;;;;;;5027382;28;20794;-62
2022/06/28 00:50:44;;;;;;;76.30;19.40;;;;;;;;;;5025219;28;20025;-62
2022/06/28 00:53:13;;;;;;;83.60;19.83;;;;;;;;;;5024155;28;20033;-60
2022/06/28 00:55:41;;;;;;;90.20;21.33;;;;;;;;;;5026996;28;20026;-60
2022/06/28 00:58:09;;;;;;;92.10;22.05;;;;;;;;;;5027861;28;20028;-61
2022/06/28 01:00:38;;;;;;;97.78;23.30;;;;;;;;;;5031160;28;20049;-61
2022/06/28 01:03:05;;;;;;;88.60;21.20;;;;;;;;;;5031544;28;20032;-62
2022/06/28 01:05:32;;;;;;;86.35;21.33;;;;;;;;;;5031239;28;20172;-60
2022/06/28 01:08:00;;;;;;;86.97;21.45;;;;;;;;;;5026893;28;20071;-62
2022/06/28 01:10:27;;;;;;;83.65;21.05;;;;;;;;;;5028747;28;20036;-62
2022/06/28 01:12:54;;;;;;;84.32;20.48;;;;;;;;;;5025567;28;20112;-61
2022/06/28 01:15:21;;;;;;;91.65;19.50;;;;;;;;;;5030052;28;20502;-62
2022/06/28 01:17:48;;;;;;;76.63;18.58;;;;;;;;;;5031863;28;20056;-61
2022/06/28 01:20:16;;;;;;;67.20;18.17;;;;;;;;;;5026944;28;20033;-61
2022/06/28 01:22:43;;;;;;;82.78;20.60;;;;;;;;;;5032232;28;20116;-62
2022/06/28 01:25:11;;;;;;;84.40;19.23;;;;;;;;;;5030214;28;20028;-61
2022/06/28 01:27:38;;;;;;;68.10;17.05;;;;;;;;;;5029894;28;20494;-60
2022/06/28 01:30:05;;;;;;;74.97;17.70;;;;;;;;;;5022708;28;20061;-61
2022/06/28 01:32:32;;;;;;;62.45;15.88;;;;;;;;;;5018875;28;20069;-60
2022/06/28 01:35:00;;;;;;;73.05;16.50;;;;;;;;;;5018472;28;20057;-60
2022/06/28 01:37:29;;;;;;;69.45;16.92;;;;;;;;;;5020593;28;20683;-61
2022/06/28 01:39:56;;;;;;;65.28;16.48;;;;;;;;;;5009660;28;20030;-60
2022/06/28 01:42:23;;;;;;;67.40;16.65;;;;;;;;;;5018390;28;20036;-60
2022/06/28 01:44:50;;;;;;;67.30;15.38;;;;;;;;;;5016335;28;20029;-61
2022/06/28 01:47:19;;;;;;;65.30;15.57;;;;;;;;;;5018982;28;20487;-60
2022/06/28 01:49:46;;;;;;;57.15;14.23;;;;;;;;;;5015179;28;20032;-59
2022/06/28 01:52:13;;;;;;;66.70;16.05;;;;;;;;;;5014031;28;20029;-60
2022/06/28 01:54:40;;;;;;;57.10;14.73;;;;;;;;;;5013077;28;20242;-61
2022/06/28 01:57:07;;;;;;;51.40;13.27;;;;;;;;;;5013773;28;20088;-59
2022/06/28 01:59:34;;;;;;;55.80;14.57;;;;;;;;;;5013823;28;20399;-60
2022/06/28 02:02:01;;;;;;;57.70;12.57;;;;;;;;;;5019542;28;20136;-60
2022/06/28 02:04:29;;;;;;;54.83;13.15;;;;;;;;;;5024048;28;20083;-61
2022/06/28 02:06:57;;;;;;;61.35;13.93;;;;;;;;;;5021966;28;20125;-61
2022/06/28 02:09:24;;;;;;;53.25;12.52;;;;;;;;;;5024652;28;20449;-61
2022/06/28 02:11:52;;;;;;;56.78;13.15;;;;;;;;;;5022479;28;20049;-61
2022/06/28 02:14:19;;;;;;;51.05;13.50;;;;;;;;;;5018337;28;20430;-61
2022/06/28 02:16:47;;;;;;;50.45;12.48;;;;;;;;;;5027971;28;20080;-60
2022/06/28 02:19:13;;;;;;;49.20;12.43;;;;;;;;;;5027692;28;20080;-60
2022/06/28 02:21:42;;;;;;;49.03;12.20;;;;;;;;;;5023180;28;20091;-61
2022/06/28 02:24:10;;;;;;;44.90;11.85;;;;;;;;;;5023414;28;20391;-61
2022/06/28 02:26:38;;;;;;;47.70;11.90;;;;;;;;;;5021332;28;20069;-61
2022/06/28 02:29:06;;;;;;;51.92;12.27;;;;;;;;;;5021836;28;20029;-60
2022/06/28 02:31:33;;;;;;;42.40;11.63;;;;;;;;;;5031750;28;20494;-61
2022/06/28 02:34:00;;;;;;;43.53;12.07;;;;;;;;;;5032318;28;20108;-60
2022/06/28 02:41:51;;;;;;;39.33;10.73;;;;;;;;;;5032851;28;20063;-61
2022/06/28 02:44:19;;;;;;;34.80;11.07;;;;;;;;;;5032178;28;20021;-61
2022/06/28 02:46:49;;;;;;;43.65;11.95;;;;;;;;;;5032253;28;20055;-60
2022/06/28 02:49:16;;;;;;;38.80;10.85;;;;;;;;;;5032857;28;20079;-61
2022/06/28 02:51:43;;;;;;;38.03;9.95;;;;;;;;;;5031823;28;20479;-60
2022/06/28 02:54:10;;;;;;;34.75;10.55;;;;;;;;;;5032001;28;20033;-60
2022/06/28 02:56:38;;;;;;;37.78;10.50;;;;;;;;;;5032260;28;20029;-61
2022/06/28 02:59:05;;;;;;;32.58;9.75;;;;;;;;;;5032640;28;20033;-59
2022/06/28 03:01:32;;;;;;;36.38;9.32;;;;;;;;;;5025175;28;20137;-60
2022/06/28 03:03:59;;;;;;;33.33;10.00;;;;;;;;;;5032254;28;20091;-60
2022/06/28 03:06:26;;;;;;;34.72;10.48;;;;;;;;;;5032416;28;20032;-59
2022/06/28 03:08:53;;;;;;;32.28;10.02;;;;;;;;;;5032389;28;20025;-60
2022/06/28 03:11:20;;;;;;;26.15;9.75;;;;;;;;;;5033018;28;20057;-60
2022/06/28 03:13:47;;;;;;;34.78;9.98;;;;;;;;;;5031677;28;20372;-60
2022/06/28 03:16:14;;;;;;;31.25;9.55;;;;;;;;;;5032729;28;20026;-60
2022/06/28 03:18:41;;;;;;;35.08;9.75;;;;;;;;;;5032040;28;20569;-60
2022/06/28 03:21:08;;;;;;;29.95;9.60;;;;;;;;;;5031928;28;20042;-60
2022/06/28 03:23:35;;;;;;;31.08;9.30;;;;;;;;;;5032044;28;20030;-60
2022/06/28 03:26:02;;;;;;;30.63;10.23;;;;;;;;;;5031498;28;20114;-60
2022/06/28 03:28:29;;;;;;;25.90;8.27;;;;;;;;;;5032146;28;20111;-60
2022/06/28 03:30:56;;;;;;;32.05;9.18;;;;;;;;;;5031924;28;20071;-60
2022/06/28 03:33:23;;;;;;;29.00;7.70;;;;;;;;;;5031434;28;20399;-59
2022/06/28 03:35:49;;;;;;;24.52;8.27;;;;;;;;;;5032406;28;20491;-60
2022/06/28 03:38:16;;;;;;;22.60;8.05;;;;;;;;;;5031689;28;20402;-60
2022/06/28 03:40:43;;;;;;;25.35;8.85;;;;;;;;;;5031960;28;20025;-60
2022/06/28 03:43:10;;;;;;;20.40;7.07;;;;;;;;;;5031327;28;20031;-60
2022/06/28 03:45:37;;;;;;;24.95;7.80;;;;;;;;;;5031491;28;21228;-60
2022/06/28 03:48:04;;;;;;;22.90;7.28;;;;;;;;;;5031575;28;20411;-60
2022/06/28 03:50:31;;;;;;;31.85;8.60;;;;;;;;;;5031820;28;20017;-60
2022/06/28 03:52:58;;;;;;;19.02;7.55;;;;;;;;;;5031518;28;20032;-60
2022/06/28 03:55:25;;;;;;;29.05;8.27;;;;;;;;;;5031564;28;20029;-60
2022/06/28 03:57:52;;;;;;;24.63;7.75;;;;;;;;;;5031426;28;20022;-60
2022/06/28 04:00:19;;;;;;;23.13;7.40;;;;;;;;;;5031365;28;20068;-61
2022/06/28 04:02:46;;;;;;;26.70;7.03;;;;;;;;;;5031271;28;20036;-60
2022/06/28 04:05:13;;;;;;;20.33;7.45;;;;;;;;;;5031775;28;20021;-60
2022/06/28 04:07:40;;;;;;;20.33;7.05;;;;;;;;;;5031039;28;20097;-60
2022/06/28 04:10:07;;;;;;;21.23;6.70;;;;;;;;;;5031831;28;20064;-60
2022/06/28 04:12:34;;;;;;;19.58;6.88;;;;;;;;;;5031812;28;20037;-60
2022/06/28 04:15:01;;;;;;;19.52;6.57;;;;;;;;;;5030723;28;20111;-60
2022/06/28 04:17:28;;;;;;;24.73;7.15;;;;;;;;;;5031854;28;20029;-60
2022/06/28 04:19:55;;;;;;;19.55;7.20;;;;;;;;;;5030674;28;20113;-60
2022/06/28 04:22:22;;;;;;;16.23;6.38;;;;;;;;;;5031586;28;20033;-60
2022/06/28 04:24:49;;;;;;;17.13;6.63;;;;;;;;;;5031159;28;20068;-60
2022/06/28 04:27:16;;;;;;;22.50;6.45;;;;;;;;;;5031467;28;20087;-61
2022/06/28 04:29:43;;;;;;;19.27;6.25;;;;;;;;;;5030807;28;20033;-60
2022/06/28 04:32:10;;;;;;;16.90;6.30;;;;;;;;;;5031548;28;20455;-60
2022/06/28 04:34:37;;;;;;;17.13;5.65;;;;;;;;;;5030118;28;20057;-60
2022/06/28 04:37:04;;;;;;;16.35;5.85;;;;;;;;;;5031370;28;20029;-60
2022/06/28 04:39:31;;;;;;;16.48;5.78;;;;;;;;;;5031184;28;20061;-60
2022/06/28 04:41:58;;;;;;;16.40;6.32;;;;;;;;;;5031234;28;20068;-60
2022/06/28 04:44:25;;;;;;;14.32;5.60;;;;;;;;;;5030291;28;20091;-60
2022/06/28 04:46:52;;;;;;;14.07;5.68;;;;;;;;;;5031275;28;20133;-60
2022/06/28 04:49:19;;;;;;;13.80;5.20;;;;;;;;;;5031358;28;20517;-60
2022/06/28 04:51:46;;;;;;;12.90;5.07;;;;;;;;;;5029653;28;20048;-60
2022/06/28 04:54:13;;;;;;;17.25;5.40;;;;;;;;;;5030511;28;20029;-60
2022/06/28 04:56:40;;;;;;;13.88;5.57;;;;;;;;;;5030291;28;20026;-60
2022/06/28 04:59:07;;;;;;;18.20;5.50;;;;;;;;;;5031265;28;20062;-60
2022/06/28 05:01:34;;;;;;;13.40;4.95;;;;;;;;;;5030381;28;20041;-60
2022/06/28 05:04:00;;;;;;;11.25;4.95;;;;;;;;;;5030450;28;20029;-60
2022/06/28 05:06:27;;;;;;;15.75;4.72;;;;;;;;;;5029634;28;20025;-60
2022/06/28 05:08:56;;;;;;;11.25;4.65;;;;;;;;;;5031128;28;20497;-60
2022/06/28 05:11:23;;;;;;;13.85;5.20;;;;;;;;;;5030608;28;20033;-60
2022/06/28 05:13:50;;;;;;;11.38;4.30;;;;;;;;;;5031146;28;20025;-60
2022/06/28 05:16:17;;;;;;;12.27;5.03;;;;;;;;;;5030249;28;20040;-59
2022/06/28 05:18:44;;;;;;;11.23;4.47;;;;;;;;;;5031185;28;20107;-60
2022/06/28 05:21:11;;;;;;;12.77;4.72;;;;;;;;;;5030432;28;20773;-60
2022/06/28 05:23:38;;;;;;;11.05;4.72;;;;;;;;;;5031264;28;20387;-60
2022/06/28 05:26:05;;;;;;;12.98;4.40;;;;;;;;;;5030077;28;20509;-60
2022/06/28 05:28:32;;;;;;;12.23;4.57;;;;;;;;;;5030816;28;20103;-60
2022/06/28 05:30:59;;;;;;;10.68;4.63;;;;;;;;;;5030285;28;20032;-60
2022/06/28 05:33:26;;;;;;;11.57;4.47;;;;;;;;;;5030542;28;20033;-60
2022/06/28 05:35:53;;;;;;;9.48;4.22;;;;;;;;;;5030490;28;20034;-60
2022/06/28 05:38:20;;;;;;;9.88;4.03;;;;;;;;;;5030921;28;20108;-60
2022/06/28 05:40:47;;;;;;;10.25;4.43;;;;;;;;;;5029933;28;20030;-60
2022/06/28 05:43:14;;;;;;;10.00;4.22;;;;;;;;;;5030945;28;20056;-60
2022/06/28 05:45:41;;;;;;;9.77;4.18;;;;;;;;;;5030523;28;20037;-60
2022/06/28 05:48:08;;;;;;;10.73;4.03;;;;;;;;;;5034263;28;20045;-60
2022/06/28 05:50:35;;;;;;;10.05;4.03;;;;;;;;;;5034397;28;20021;-60
2022/06/28 05:53:02;;;;;;;13.10;4.10;;;;;;;;;;5033471;28;20032;-60
2022/06/28 05:55:30;;;;;;;9.10;3.97;;;;;;;;;;5034007;28;20068;-60
2022/06/28 05:57:57;;;;;;;7.70;3.28;;;;;;;;;;5033305;28;20507;-60
2022/06/28 06:00:24;;;;;;;11.95;3.88;;;;;;;;;;5034070;28;20040;-60
2022/06/28 06:02:51;;;;;;;7.85;3.63;;;;;;;;;;5033362;28;20515;-60
2022/06/28 06:05:18;;;;;;;8.85;3.45;;;;;;;;;;5033810;28;20075;-60
2022/06/28 06:07:45;;;;;;;9.85;3.80;;;;;;;;;;5033237;28;20495;-60
2022/06/28 06:10:12;;;;;;;10.73;3.90;;;;;;;;;;5033682;28;20029;-60
2022/06/28 06:12:39;;;;;;;9.73;3.92;;;;;;;;;;5032913;28;20037;-61
2022/06/28 06:15:06;;;;;;;7.90;3.90;;;;;;;;;;5033668;28;20080;-61
2022/06/28 06:17:33;;;;;;;8.55;3.65;;;;;;;;;;5032095;28;20033;-60
2022/06/28 06:20:02;;;;;;;7.57;3.70;;;;;;;;;;5033841;28;20458;-60
2022/06/28 06:22:30;;;;;;;7.30;3.13;;;;;;;;;;5033053;28;20041;-60
2022/06/28 06:24:57;;;;;;;7.15;3.42;;;;;;;;;;5033605;28;20388;-60
2022/06/28 06:27:24;;;;;;;6.07;3.08;;;;;;;;;;5032910;28;20036;-60
2022/06/28 06:29:51;;;;;;;9.82;3.90;;;;;;;;;;5033447;28;20059;-59
2022/06/28 06:32:18;;;;;;;8.07;3.38;;;;;;;;;;5033418;28;20061;-60
2022/06/28 06:34:46;;;;;;;6.75;3.15;;;;;;;;;;5033014;28;20112;-60
2022/06/28 06:37:13;;;;;;;8.82;3.22;;;;;;;;;;5180391;23;21050;-57
2022/06/28 06:39:40;;;;;;;6.10;2.72;;;;;;;;;;5021874;28;20562;-61
2022/06/28 06:42:07;;;;;;;7.43;3.22;;;;;;;;;;5033580;28;20056;-60
2022/06/28 06:44:34;;;;;;;7.40;2.80;;;;;;;;;;5015477;28;20435;-60
2022/06/28 06:47:01;;;;;;;7.50;3.08;;;;;;;;;;5021809;28;20495;-60
2022/06/28 06:49:28;;;;;;;6.95;2.65;;;;;;;;;;5013795;28;20037;-60
2022/06/28 06:51:55;;;;;;;7.18;2.97;;;;;;;;;;5013377;28;20030;-60
2022/06/28 06:54:22;;;;;;;7.15;3.15;;;;;;;;;;5013844;28;20464;-60
2022/06/28 06:56:49;;;;;;;7.30;2.95;;;;;;;;;;5012844;28;20503;-60
2022/06/28 06:59:17;;;;;;;5.00;2.60;;;;;;;;;;5011998;28;20033;-60
2022/06/28 07:01:44;;;;;;;8.13;2.95;;;;;;;;;;5012898;28;20123;-60
2022/06/28 07:04:11;;;;;;;6.90;2.83;;;;;;;;;;5013466;28;20033;-60
2022/06/28 07:06:39;;;;;;;8.05;3.10;;;;;;;;;;5013490;28;20484;-60
2022/06/28 07:09:06;;;;;;;6.75;3.15;;;;;;;;;;5013615;28;20045;-60
2022/06/28 07:11:33;;;;;;;7.45;3.22;;;;;;;;;;5013258;28;20029;-61
2022/06/28 07:14:00;;;;;;;6.10;2.70;;;;;;;;;;5012987;28;20053;-60
2022/06/28 07:16:27;;;;;;;5.18;2.35;;;;;;;;;;5013289;28;20056;-60
2022/06/28 07:18:54;;;;;;;7.13;2.63;;;;;;;;;;5013239;28;20037;-60
2022/06/28 07:21:21;;;;;;;4.97;2.70;;;;;;;;;;5013449;28;20065;-60
2022/06/28 07:23:48;;;;;;;6.82;2.60;;;;;;;;;;5012595;28;20033;-60
2022/06/28 07:26:16;;;;;;;7.18;2.65;;;;;;;;;;5013511;28;20022;-60
2022/06/28 07:28:43;;;;;;;4.78;2.58;;;;;;;;;;5012499;28;20021;-60
2022/06/28 07:31:10;;;;;;;6.75;2.60;;;;;;;;;;5013243;28;20593;-60
2022/06/28 07:33:37;;;;;;;8.32;2.70;;;;;;;;;;5011264;28;20040;-60
2022/06/28 07:36:04;;;;;;;6.78;2.95;;;;;;;;;;5012748;28;20475;-60
2022/06/28 07:38:31;;;;;;;4.15;2.42;;;;;;;;;;5012392;28;20049;-60
2022/06/28 07:40:59;;;;;;;5.75;2.75;;;;;;;;;;5012503;28;20037;-60
2022/06/28 07:43:26;;;;;;;7.13;2.47;;;;;;;;;;5012493;28;20054;-60
2022/06/28 07:45:53;;;;;;;5.53;2.60;;;;;;;;;;5012793;28;20577;-60
2022/06/28 07:48:20;;;;;;;6.28;2.65;;;;;;;;;;5012974;28;20120;-60
2022/06/28 07:53:33;;;;;;;6.07;2.70;;;;;;;;;;5013266;28;20060;-60
2022/06/28 07:56:00;;;;;;;4.20;2.47;;;;;;;;;;5012254;28;20428;-60
2022/06/28 07:58:27;;;;;;;7.35;3.05;;;;;;;;;;5012671;28;20026;-60
2022/06/28 08:00:54;;;;;;;6.28;2.60;;;;;;;;;;5012746;28;20038;-60
2022/06/28 08:03:21;;;;;;;5.75;2.42;;;;;;;;;;5011991;28;20034;-60
2022/06/28 08:05:48;;;;;;;5.07;2.47;;;;;;;;;;5012083;28;20078;-60
2022/06/28 08:08:15;;;;;;;4.50;2.40;;;;;;;;;;5011626;28;20109;-60
2022/06/28 08:10:42;;;;;;;6.38;2.50;;;;;;;;;;5011207;28;20112;-60
2022/06/28 08:13:12;;;;;;;4.10;2.22;;;;;;;;;;5011779;28;20033;-60
2022/06/28 08:15:39;;;;;;;6.07;2.60;;;;;;;;;;5012054;28;20095;-60
2022/06/28 08:18:07;;;;;;;4.43;2.25;;;;;;;;;;5012231;28;20025;-60
2022/06/28 08:20:34;;;;;;;6.57;3.20;;;;;;;;;;5012395;28;20536;-60
2022/06/28 08:23:01;;;;;;;3.60;2.00;;;;;;;;;;5011703;28;20093;-60
2022/06/28 08:25:28;;;;;;;4.97;2.30;;;;;;;;;;5012073;28;20052;-60
2022/06/28 08:27:55;;;;;;;4.38;2.50;;;;;;;;;;5012059;28;20395;-60
2022/06/28 08:30:22;;;;;;;5.40;2.33;;;;;;;;;;5012555;28;20018;-60
2022/06/28 08:32:49;;;;;;;5.47;2.60;;;;;;;;;;5012060;28;20026;-60
2022/06/28 08:35:16;;;;;;;5.35;2.70;;;;;;;;;;5011622;28;20536;-60
2022/06/28 08:37:43;;;;;;;7.05;2.60;;;;;;;;;;5012058;28;20050;-60
2022/06/28 08:40:11;;;;;;;3.58;2.33;;;;;;;;;;5011593;28;20030;-60
2022/06/28 08:42:39;;;;;;;3.22;2.05;;;;;;;;;;5011909;28;20389;-60
2022/06/28 08:45:06;;;;;;;3.58;2.40;;;;;;;;;;5011702;28;20387;-60
2022/06/28 08:47:34;;;;;;;3.72;2.83;;;;;;;;;;5011640;28;20022;-60
2022/06/28 08:50:10;;;;;;;5.22;2.78;;;;;;;;;;5011810;28;20057;-60
2022/06/28 08:52:37;;;;;;;4.72;2.70;;;;;;;;;;5012244;28;20476;-60
2022/06/28 08:55:06;;;;;;;4.78;2.38;;;;;;;;;;5012085;28;20479;-60
2022/06/28 08:57:35;;;;;;;3.97;2.45;;;;;;;;;;5011490;28;20022;-60
2022/06/28 09:00:05;;;;;;;4.60;2.53;;;;;;;;;;5011974;28;20034;-60
2022/06/28 09:02:32;;;;;;;4.80;2.80;;;;;;;;;;5011271;28;20058;-60
2022/06/28 09:05:00;;;;;;;6.88;2.95;;;;;;;;;;5011922;28;20419;-60
2022/06/28 09:07:28;;;;;;;5.18;2.60;;;;;;;;;;5011815;28;20026;-60
2022/06/28 09:09:55;;;;;;;4.68;2.60;;;;;;;;;;5011305;28;20088;-60
2022/06/28 09:12:22;;;;;;;5.22;2.70;;;;;;;;;;5012105;28;20052;-60
2022/06/28 09:14:49;;;;;;;3.83;2.50;;;;;;;;;;5011695;28;20034;-60
2022/06/28 09:17:19;;;;;;;4.53;2.65;;;;;;;;;;5011390;28;20056;-60
2022/06/28 09:19:46;;;;;;;4.57;2.53;;;;;;;;;;5012589;28;20053;-60
2022/06/28 09:22:33;;;;;;;7.65;2.80;;;;;;;;;;5015015;28;20042;-60
2022/06/28 09:25:01;;;;;;;4.18;2.40;;;;;;;;;;5014950;28;20029;-61
2022/06/28 09:27:29;;;;;;;3.92;2.42;;;;;;;;;;5015201;28;20030;-61
2022/06/28 09:29:56;;;;;;;4.72;2.28;;;;;;;;;;5014481;28;20050;-60
2022/06/28 09:32:27;;;;;;;4.00;2.33;;;;;;;;;;5015045;28;20454;-60
2022/06/28 09:34:59;;;;;;;4.93;2.08;;;;;;;;;;5014885;28;20080;-61
2022/06/28 09:37:51;;;;;;;3.75;2.50;;;;;;;;;;5014064;28;22107;-60
2022/06/28 09:40:32;;;;;;;6.72;2.92;;;;;;;;;;5011618;28;20046;-60
2022/06/28 09:43:05;;;;;;;5.53;2.22;;;;;;;;;;5014380;28;20082;-61
2022/06/28 09:45:32;;;;;;;3.08;2.08;;;;;;;;;;5014716;28;20101;-61
2022/06/28 09:47:59;;;;;;;6.25;2.20;;;;;;;;;;5014334;28;20033;-60
2022/06/28 09:50:26;;;;;;;5.07;2.30;;;;;;;;;;5014564;28;20022;-60
2022/06/28 09:52:53;;;;;;;3.35;1.95;;;;;;;;;;5014699;28;20026;-61
2022/06/28 09:55:21;;;;;;;4.90;2.08;;;;;;;;;;5013365;28;20037;-61
2022/06/28 09:57:48;;;;;;;5.95;2.45;;;;;;;;;;5014721;28;20038;-61
2022/06/28 10:00:20;;;;;;;4.13;2.42;;;;;;;;;;5014778;28;20080;-61
2022/06/28 10:02:47;;;;;;;5.70;2.08;;;;;;;;;;5014430;28;20804;-61
2022/06/28 10:05:14;;;;;;;5.25;2.70;;;;;;;;;;5014938;28;20032;-61
2022/06/28 10:07:42;;;;;;;4.15;2.60;;;;;;;;;;5013734;28;20025;-61
2022/06/28 10:10:10;;;;;;;4.68;2.97;;;;;;;;;;5014853;28;20383;-61
2022/06/28 10:15:23;;;;;;;7.30;2.72;;;;;;;;;;5014436;28;20329;-60
2022/06/28 10:17:53;;;;;;;5.10;2.78;;;;;;;;;;5014611;28;20034;-60
2022/06/28 10:20:25;;;;;;;10.85;2.83;;;;;;;;;;5013740;28;20030;-61
2022/06/28 10:22:52;;;;;;;13.02;3.10;;;;;;;;;;5014624;28;20026;-60
2022/06/28 10:25:23;;;;;;;11.38;3.40;;;;;;;;;;5013756;28;20101;-61
2022/06/28 10:27:58;;;;;;;14.57;3.60;;;;;;;;;;5021511;28;20053;-60
2022/06/28 10:30:33;;;;;;;13.32;3.60;;;;;;;;;;5015375;28;20058;-60
2022/06/28 10:33:13;;;;;;;13.10;3.67;;;;;;;;;;5007512;28;20025;-63
2022/06/28 10:35:55;;;;;;;20.50;3.55;;;;;;;;;;4992775;28;20046;-63
2022/06/28 10:38:27;;;;;;;12.90;3.20;;;;;;;;;;4992066;28;20054;-62
2022/06/28 10:41:14;;;;;;;14.18;3.45;;;;;;;;;;4993355;28;20034;-61
2022/06/28 10:43:51;;;;;;;27.70;4.10;;;;;;;;;;4991939;28;20031;-60
2022/06/28 10:46:27;;;;;;;15.07;3.45;;;;;;;;;;4993763;28;20081;-60
2022/06/28 10:48:57;;;;;;;9.20;2.78;;;;;;;;;;4993199;28;20022;-60
2022/06/28 10:51:28;;;;;;;10.00;2.78;;;;;;;;;;4993056;28;20053;-60
2022/06/28 10:54:06;;;;;;;14.60;3.40;;;;;;;;;;4992614;28;20114;-60
2022/06/28 10:56:37;;;;;;;10.88;2.90;;;;;;;;;;4993597;28;20030;-60
2022/06/28 10:59:08;;;;;;;11.45;3.03;;;;;;;;;;4993264;28;20061;-60
2022/06/28 11:01:44;;;;;;;10.75;2.92;;;;;;;;;;4993210;28;20034;-60
2022/06/28 11:04:14;;;;;;;9.63;2.70;;;;;;;;;;5021783;28;20060;-61
2022/06/28 11:06:42;;;;;;;8.32;2.85;;;;;;;;;;5012918;28;20105;-62
2022/06/28 11:09:32;;;;;;;8.50;2.72;;;;;;;;;;5012451;28;20048;-60
2022/06/28 11:12:06;;;;;;;7.85;3.20;;;;;;;;;;5012820;28;20026;-60
2022/06/28 11:14:53;;;;;;;6.65;2.60;;;;;;;;;;5012849;28;20506;-60
2022/06/28 11:17:29;;;;;;;11.45;2.80;;;;;;;;;;4973452;28;20095;-60
2022/06/28 11:20:00;;;;;;;25.85;3.45;;;;;;;;;;5012358;28;20502;-60
2022/06/28 11:22:27;;;;;;;34.88;4.15;;;;;;;;;;5009584;28;20451;-61
2022/06/28 11:24:55;;;;;;;29.80;3.65;;;;;;;;;;5011512;28;20065;-61
2022/06/28 11:27:22;;;;;;;34.97;4.13;;;;;;;;;;5011731;28;20057;-64
2022/06/28 11:30:02;;;;;;;16.50;2.85;;;;;;;;;;5012499;28;20035;-63
2022/06/28 11:32:33;;;;;;;21.35;3.53;;;;;;;;;;5011948;28;20101;-61
2022/06/28 11:35:02;;;;;;;26.97;3.67;;;;;;;;;;5012507;28;20104;-61
2022/06/28 11:37:29;;;;;;;16.15;2.85;;;;;;;;;;5011728;28;20781;-61
2022/06/28 11:40:00;;;;;;;24.90;4.13;;;;;;;;;;5011972;28;20026;-62
2022/06/28 11:42:28;;;;;;;346.75;31.98;;;;;;;;;;5011822;28;20033;-63
2022/06/28 11:44:56;;;;;;;168.23;17.35;;;;;;;;;;5008495;28;20504;-63
2022/06/28 11:47:23;;;;;;;107.18;12.18;;;;;;;;;;5001841;28;20486;-64
2022/06/28 11:50:09;;;;;;;88.07;10.60;;;;;;;;;;5000287;28;20049;-62
2022/06/28 11:52:37;;;;;;;62.25;8.07;;;;;;;;;;4992702;28;20065;-61
2022/06/28 11:55:04;;;;;;;62.70;8.30;;;;;;;;;;4991909;28;20041;-61
2022/06/28 11:57:31;;;;;;;48.67;6.75;;;;;;;;;;4991922;28;20480;-62
2022/06/28 11:59:59;;;;;;;54.10;8.40;;;;;;;;;;4995086;28;20468;-59
2022/06/28 12:02:38;;;;;;;54.00;8.82;;;;;;;;;;5001978;28;20034;-62
2022/06/28 12:05:05;;;;;;;50.83;8.32;;;;;;;;;;5012157;28;20030;-62
2022/06/28 12:07:36;;;;;;;51.75;7.72;;;;;;;;;;5010920;28;20028;-63
2022/06/28 12:10:04;;;;;;;315.00;34.13;;;;;;;;;;5011324;28;20168;-61
2022/06/28 12:12:30;;;;;;;128.07;14.50;;;;;;;;;;5011266;28;20108;-61
2022/06/28 12:15:00;;;;;;;66.93;9.50;;;;;;;;;;5012021;28;20483;-63
2022/06/28 12:17:27;;;;;;;68.72;9.73;;;;;;;;;;5011166;28;20025;-62
2022/06/28 12:19:54;;;;;;;49.75;9.32;;;;;;;;;;5010801;28;20108;-64
2022/06/28 12:22:25;;;;;;;50.58;8.25;;;;;;;;;;5010394;28;20034;-61
2022/06/28 12:24:56;;;;;;;47.78;7.90;;;;;;;;;;5011494;28;20058;-60
2022/06/28 12:27:34;;;;;;;39.42;5.78;;;;;;;;;;5010730;28;20038;-61
2022/06/28 12:30:01;;;;;;;38.92;6.22;;;;;;;;;;5011172;28;20048;-62
2022/06/28 12:32:29;;;;;;;47.10;7.15;;;;;;;;;;5011010;28;20034;-60
2022/06/28 12:35:00;;;;;;;44.35;6.95;;;;;;;;;;5011710;28;20022;-62
2022/06/28 12:37:27;;;;;;;49.22;9.43;;;;;;;;;;5000528;28;20033;-63
2022/06/28 12:39:55;;;;;;;48.28;7.10;;;;;;;;;;4990997;28;20106;-65
2022/06/28 12:42:22;;;;;;;29.90;5.32;;;;;;;;;;5008650;28;20030;-64
2022/06/28 12:44:49;;;;;;;44.55;7.05;;;;;;;;;;5011300;28;20470;-64
2022/06/28 12:47:16;;;;;;;36.08;6.70;;;;;;;;;;5010693;28;20068;-63
2022/06/28 12:49:43;;;;;;;42.53;7.15;;;;;;;;;;5011269;28;20034;-64
2022/06/28 12:52:10;;;;;;;32.88;6.25;;;;;;;;;;5010403;28;20030;-64
2022/06/28 12:54:37;;;;;;;41.92;7.55;;;;;;;;;;5012510;28;20041;-63
2022/06/28 12:57:04;;;;;;;42.45;7.05;;;;;;;;;;5014784;28;20045;-64
2022/06/28 12:59:31;;;;;;;36.42;6.53;;;;;;;;;;5015233;28;20037;-63
2022/06/28 13:01:58;;;;;;;39.20;6.80;;;;;;;;;;5014525;28;20034;-65
2022/06/28 13:04:25;;;;;;;39.00;6.65;;;;;;;;;;5015134;28;20069;-67
2022/06/28 13:06:52;;;;;;;44.13;8.57;;;;;;;;;;5015155;28;20037;-66
2022/06/28 13:09:19;;;;;;;45.45;8.05;;;;;;;;;;5015191;28;20531;-66
2022/06/28 13:11:46;;;;;;;46.88;7.65;;;;;;;;;;5015395;28;20492;-66
2022/06/28 13:14:13;;;;;;;49.28;8.10;;;;;;;;;;5015158;28;20030;-66
2022/06/28 13:16:40;;;;;;;47.03;8.25;;;;;;;;;;5015475;28;20402;-66
2022/06/28 13:19:07;;;;;;;38.53;7.70;;;;;;;;;;5014513;28;20030;-66
2022/06/28 13:21:34;;;;;;;44.78;7.80;;;;;;;;;;5015531;28;20171;-66
2022/06/28 13:24:01;;;;;;;31.65;7.43;;;;;;;;;;5014909;28;20041;-65
2022/06/28 13:26:28;;;;;;;42.40;8.93;;;;;;;;;;5010710;28;20113;-66
2022/06/28 13:28:56;;;;;;;45.38;9.13;;;;;;;;;;5005391;28;20058;-66
2022/06/28 13:31:23;;;;;;;48.30;8.23;;;;;;;;;;5001091;28;20030;-66
2022/06/28 13:33:50;;;;;;;50.00;7.28;;;;;;;;;;4995281;28;20114;-65
2022/06/28 13:36:17;;;;;;;38.55;7.25;;;;;;;;;;4993215;28;20756;-65
2022/06/28 13:38:44;;;;;;;35.67;7.10;;;;;;;;;;4994076;28;20193;-65
2022/06/28 13:41:11;;;;;;;41.40;6.63;;;;;;;;;;5003007;28;20045;-66
2022/06/28 13:43:38;;;;;;;38.20;6.55;;;;;;;;;;4992798;28;20041;-66
2022/06/28 13:46:06;;;;;;;37.00;5.78;;;;;;;;;;4994218;28;20045;-66
2022/06/28 13:48:34;;;;;;;43.50;6.88;;;;;;;;;;4993944;28;20038;-67
2022/06/28 13:51:02;;;;;;;39.17;6.07;;;;;;;;;;4994340;28;20034;-66
2022/06/28 13:53:30;;;;;;;35.17;4.75;;;;;;;;;;4993702;28;20109;-67
2022/06/28 13:55:57;;;;;;;35.38;5.28;;;;;;;;;;4994599;28;20462;-66
2022/06/28 13:58:24;;;;;;;21.67;4.35;;;;;;;;;;4994316;28;20034;-67
2022/06/28 14:00:51;;;;;;;21.88;4.53;;;;;;;;;;4993335;28;20498;-66
2022/06/28 14:03:18;;;;;;;21.10;4.68;;;;;;;;;;4994520;28;20060;-67
2022/06/28 14:05:46;;;;;;;20.00;4.53;;;;;;;;;;4993192;28;20049;-66
2022/06/28 14:08:14;;;;;;;21.02;4.47;;;;;;;;;;4993394;28;20030;-66
2022/06/28 14:10:41;;;;;;;19.27;4.38;;;;;;;;;;4994525;28;20644;-65
2022/06/28 14:13:08;;;;;;;21.20;4.35;;;;;;;;;;4994266;28;20046;-65
2022/06/28 14:15:35;;;;;;;26.42;5.28;;;;;;;;;;4993642;28;20031;-65
2022/06/28 14:18:02;;;;;;;26.67;5.15;;;;;;;;;;4993650;28;20026;-66
2022/06/28 14:20:29;;;;;;;29.33;6.13;;;;;;;;;;4994221;28;20033;-65
2022/06/28 14:22:56;;;;;;;31.83;6.85;;;;;;;;;;4993776;28;20046;-65
2022/06/28 14:25:24;;;;;;;30.23;6.65;;;;;;;;;;4993534;28;20038;-66
2022/06/28 14:27:51;;;;;;;23.75;5.90;;;;;;;;;;4990420;28;20065;-67
2022/06/28 14:30:21;;;;;;;23.83;5.75;;;;;;;;;;4992916;28;20031;-64
2022/06/28 14:32:48;;;;;;;22.15;4.78;;;;;;;;;;5002175;28;20411;-65
2022/06/28 14:35:15;;;;;;;25.27;4.30;;;;;;;;;;5011086;28;20042;-66
2022/06/28 14:37:42;;;;;;;16.90;3.88;;;;;;;;;;5005097;28;20531;-64
2022/06/28 14:40:09;;;;;;;26.90;4.50;;;;;;;;;;4993204;28;20134;-66
2022/06/28 14:42:36;;;;;;;17.65;4.38;;;;;;;;;;4993115;28;20062;-66
2022/06/28 14:45:08;;;;;;;23.52;4.82;;;;;;;;;;5007446;28;20122;-66
2022/06/28 14:47:38;;;;;;;19.95;4.60;;;;;;;;;;5011997;28;20044;-64